createdAt,value
2023-05-12T00:00:58.110Z,3.90
2023-05-12T00:06:04.524Z,4.60
2023-05-12T00:11:10.118Z,3.50
2023-05-12T00:16:17.544Z,3.90
2023-05-12T00:21:23.045Z,3.60
2023-05-12T00:26:28.341Z,3.70
2023-05-12T00:31:33.803Z,4.10
2023-05-12T00:36:39.991Z,3.80
2023-05-12T00:41:45.556Z,3.70
2023-05-12T00:46:52.783Z,3.90
2023-05-12T00:51:59.524Z,3.50
2023-05-12T00:57:06.258Z,3.30
2023-05-12T01:02:12.701Z,3.50
2023-05-12T01:07:21.850Z,3.50
2023-05-12T01:12:28.631Z,3.30
2023-05-12T01:17:37.090Z,3.60
2023-05-12T01:22:46.341Z,3.10
2023-05-12T01:27:52.652Z,3.30
2023-05-12T01:32:59.288Z,3.60
2023-05-12T01:38:04.945Z,3.50
2023-05-12T01:43:13.427Z,3.40
2023-05-12T01:48:18.888Z,3.70
2023-05-12T01:53:25.065Z,3.40
2023-05-12T01:58:30.700Z,3.30
2023-05-12T02:03:38.141Z,3.60
2023-05-12T02:08:48.416Z,3.40
2023-05-12T02:13:54.820Z,3.90
2023-05-12T02:19:00.979Z,3.90
2023-05-12T02:24:07.120Z,5.40
2023-05-12T02:29:13.892Z,4.70
2023-05-12T02:34:19.564Z,4.20
2023-05-12T02:39:25.002Z,4.70
2023-05-12T02:44:30.437Z,4.20
2023-05-12T02:49:36.466Z,4.00
2023-05-12T02:54:42.035Z,4.20
2023-05-12T02:59:47.597Z,4.20
2023-05-12T03:04:53.018Z,4.30
2023-05-12T03:09:59.027Z,4.50
2023-05-12T03:15:04.895Z,4.10
2023-05-12T03:20:14.286Z,3.90
2023-05-12T03:25:22.645Z,4.00
2023-05-12T03:30:28.074Z,3.40
2023-05-12T03:35:33.540Z,3.70
2023-05-12T03:40:40.614Z,3.60
2023-05-12T03:45:47.401Z,4.40
2023-05-12T03:50:54.124Z,4.00
2023-05-12T03:56:05.616Z,3.60
2023-05-12T04:01:11.701Z,3.70
2023-05-12T04:06:17.110Z,3.80
2023-05-12T04:11:23.561Z,3.70
2023-05-12T04:16:29.140Z,3.20
2023-05-12T04:21:37.353Z,2.50
2023-05-12T04:26:42.888Z,2.90
2023-05-12T04:31:48.409Z,2.90
2023-05-12T04:36:54.222Z,2.20
2023-05-12T04:42:04.538Z,2.50
2023-05-12T04:47:12.377Z,2.00
2023-05-12T04:52:18.046Z,2.10
2023-05-12T04:57:23.556Z,2.00
2023-05-12T05:02:29.421Z,1.70
2023-05-12T05:07:38.849Z,1.80
2023-05-12T05:12:44.920Z,2.00
2023-05-12T05:17:51.170Z,1.50
2023-05-12T05:22:56.993Z,1.70
2023-05-12T05:28:02.869Z,2.00
2023-05-12T05:33:08.592Z,1.70
2023-05-12T05:38:15.306Z,1.70
2023-05-12T05:43:20.903Z,1.50
2023-05-12T05:48:26.684Z,1.60
2023-05-12T05:53:33.814Z,1.70
2023-05-12T05:58:39.820Z,1.70
2023-05-12T06:03:45.927Z,1.80
2023-05-12T06:08:51.499Z,1.40
2023-05-12T06:13:56.937Z,1.60
2023-05-12T06:19:04.293Z,1.30
2023-05-12T06:24:09.947Z,1.70
2023-05-12T06:29:15.507Z,1.70
2023-05-12T06:34:21.287Z,1.70
2023-05-12T06:39:26.885Z,1.60
2023-05-12T06:44:32.374Z,2.90
2023-05-12T06:49:38.696Z,1.30
2023-05-12T06:54:48.361Z,1.50
2023-05-12T06:59:56.858Z,1.60
2023-05-12T07:05:02.445Z,1.30
2023-05-12T07:10:09.897Z,1.50
2023-05-12T07:15:15.628Z,1.60
2023-05-12T07:20:21.216Z,1.40
2023-05-12T07:25:28.176Z,1.20
2023-05-12T07:30:33.763Z,1.20
2023-05-12T07:35:39.753Z,0.90
2023-05-12T07:40:45.370Z,1.30
2023-05-12T07:45:51.164Z,1.20
2023-05-12T07:50:57.250Z,1.30
2023-05-12T07:56:02.832Z,1.30
2023-05-12T08:01:09.275Z,1.40
2023-05-12T08:06:14.742Z,1.40
2023-05-12T08:11:20.906Z,1.60
2023-05-12T08:16:26.360Z,1.20
2023-05-12T08:21:31.769Z,1.20
2023-05-12T08:26:37.150Z,1.30
2023-05-12T08:31:42.725Z,1.40
2023-05-12T08:36:48.552Z,1.30
2023-05-12T08:42:10.575Z,1.30
2023-05-12T08:47:18.760Z,1.70
2023-05-12T08:52:25.933Z,2.20
2023-05-12T08:57:31.932Z,1.20
2023-05-12T09:02:52.091Z,1.60
2023-05-12T09:07:59.879Z,1.10
2023-05-12T09:13:13.538Z,1.60
2023-05-12T09:18:19.376Z,1.20
2023-05-12T09:23:26.050Z,1.50
2023-05-12T09:28:38.290Z,1.70
2023-05-12T09:33:44.113Z,1.60
2023-05-12T09:39:00.606Z,2.20
2023-05-12T09:44:07.856Z,1.40
2023-05-12T09:49:18.241Z,1.40
2023-05-12T09:54:28.474Z,1.70
2023-05-12T09:59:36.563Z,1.20
2023-05-12T10:04:48.009Z,1.60
2023-05-12T10:09:55.558Z,1.30
2023-05-12T10:15:01.906Z,1.40
2023-05-12T10:20:10.104Z,1.80
2023-05-12T10:25:16.945Z,1.50
2023-05-12T10:30:23.414Z,1.40
2023-05-12T10:35:36.390Z,1.80
2023-05-12T10:40:54.028Z,1.70
2023-05-12T10:46:10.870Z,1.50
2023-05-12T10:51:23.042Z,1.60
2023-05-12T10:56:30.768Z,1.50
2023-05-12T11:01:38.015Z,1.30
2023-05-12T11:06:53.219Z,1.50
2023-05-12T11:12:00.449Z,1.50
2023-05-12T11:17:06.987Z,1.20
2023-05-12T11:22:13.834Z,1.40
2023-05-12T11:27:23.806Z,1.60
2023-05-12T11:32:31.721Z,1.60
2023-05-12T11:37:40.373Z,1.80
2023-05-12T11:42:51.946Z,1.40
2023-05-12T11:48:09.837Z,1.60
2023-05-12T11:53:18.529Z,1.60
2023-05-12T11:58:26.633Z,1.90
2023-05-12T12:03:32.290Z,1.70
2023-05-12T12:08:40.586Z,1.70
2023-05-12T12:13:56.732Z,1.40
2023-05-12T12:19:02.431Z,1.80
2023-05-12T12:24:08.431Z,1.80
2023-05-12T12:29:14.551Z,2.10
2023-05-12T12:34:19.894Z,2.00
2023-05-12T12:39:25.921Z,1.90
2023-05-12T12:44:31.239Z,2.00
2023-05-12T12:49:36.758Z,1.60
2023-05-12T12:54:42.200Z,1.70
2023-05-12T12:59:48.929Z,1.70
2023-05-12T13:04:54.888Z,1.40
2023-05-12T13:10:00.339Z,2.00
2023-05-12T13:15:07.247Z,1.60
2023-05-12T13:20:14.301Z,1.90
2023-05-12T13:25:20.094Z,1.50
2023-05-12T13:30:25.956Z,1.80
2023-05-12T13:35:31.705Z,1.90
2023-05-12T13:40:37.273Z,2.00
2023-05-12T13:45:42.864Z,1.90
2023-05-12T13:50:48.222Z,1.70
2023-05-12T13:55:53.583Z,1.70
2023-05-12T14:00:59.260Z,1.90
2023-05-12T14:06:05.012Z,2.10
2023-05-12T14:11:11.461Z,1.90
2023-05-12T14:16:17.047Z,1.60
2023-05-12T14:21:22.968Z,1.50
2023-05-12T14:26:28.396Z,1.90
2023-05-12T14:31:34.322Z,1.70
2023-05-12T14:36:39.839Z,1.70
2023-05-12T14:41:45.704Z,1.50
2023-05-12T14:46:51.547Z,1.80
2023-05-12T14:51:57.522Z,2.00
2023-05-12T14:57:04.090Z,2.10
2023-05-12T15:02:12.600Z,2.00
2023-05-12T15:07:18.911Z,1.80
2023-05-12T15:12:24.959Z,1.70
2023-05-12T15:17:30.770Z,1.60
2023-05-12T15:22:38.944Z,1.50
2023-05-12T15:27:44.436Z,1.80
2023-05-12T15:32:50.037Z,1.80
2023-05-12T15:37:55.576Z,2.00
2023-05-12T15:43:01.144Z,1.60
2023-05-12T15:48:09.515Z,2.00
2023-05-12T15:53:17.168Z,2.00
2023-05-12T15:58:24.942Z,2.00
2023-05-12T16:03:30.652Z,1.90
2023-05-12T16:08:36.544Z,1.70
2023-05-12T16:13:42.440Z,1.90
2023-05-12T16:18:47.836Z,1.80
2023-05-12T16:23:53.438Z,1.90
2023-05-12T16:28:58.752Z,2.10
2023-05-12T16:34:04.310Z,1.30
2023-05-12T16:39:10.465Z,1.70
2023-05-12T16:44:15.838Z,1.90
2023-05-12T16:49:21.177Z,1.80
2023-05-12T16:54:26.924Z,1.70
2023-05-12T16:59:32.429Z,1.70
2023-05-12T17:04:38.015Z,1.80
2023-05-12T17:09:43.466Z,2.00
2023-05-12T17:14:56.104Z,2.30
2023-05-12T17:20:13.876Z,1.90
2023-05-12T17:25:20.871Z,2.70
2023-05-12T17:30:26.995Z,2.40
2023-05-12T17:36:10.887Z,2.40
2023-05-12T17:41:22.711Z,2.20
2023-05-12T17:46:28.420Z,2.10
2023-05-12T17:51:35.461Z,2.40
2023-05-12T17:56:41.366Z,2.80
2023-05-12T18:01:46.797Z,3.00
2023-05-12T18:06:52.707Z,3.20
2023-05-12T18:11:58.158Z,4.30
2023-05-12T18:17:03.714Z,4.60
2023-05-12T18:22:09.189Z,5.50
2023-05-12T18:27:15.104Z,6.40
2023-05-12T18:32:20.497Z,5.90
2023-05-12T18:37:25.956Z,7.60
2023-05-12T18:42:31.919Z,7.80
2023-05-12T18:47:37.665Z,6.80
2023-05-12T18:52:44.016Z,7.80
2023-05-12T18:57:49.668Z,7.50
2023-05-12T19:02:55.146Z,6.80
2023-05-12T19:08:00.884Z,6.90
2023-05-12T19:13:06.759Z,8.70
2023-05-12T19:18:12.592Z,7.50
2023-05-12T19:23:18.120Z,8.00
2023-05-12T19:28:24.299Z,7.00
2023-05-12T19:33:31.972Z,6.90
2023-05-12T19:38:38.017Z,6.30
2023-05-12T19:43:43.417Z,6.70
2023-05-12T19:48:49.388Z,7.40
2023-05-12T19:53:55.151Z,8.50
2023-05-12T19:59:00.655Z,8.50
2023-05-12T20:04:06.158Z,8.70
2023-05-12T20:09:12.019Z,14.20
2023-05-12T20:14:17.443Z,11.40
2023-05-12T20:19:22.874Z,10.00
2023-05-12T20:24:28.441Z,9.70
2023-05-12T20:29:34.413Z,10.70
2023-05-12T20:34:39.906Z,12.40
2023-05-12T20:39:45.303Z,11.20
2023-05-12T20:44:51.003Z,11.00
2023-05-12T20:50:05.302Z,11.20
2023-05-12T20:55:11.352Z,10.80
2023-05-12T21:00:18.335Z,11.30
2023-05-12T21:05:23.985Z,11.50
2023-05-12T21:10:31.228Z,11.70
2023-05-12T21:15:37.216Z,11.80
2023-05-12T21:20:42.659Z,12.50
2023-05-12T21:25:49.043Z,12.80
2023-05-12T21:30:54.992Z,14.10
2023-05-12T21:36:00.760Z,14.50
2023-05-12T21:41:06.421Z,14.90
2023-05-12T21:46:11.969Z,16.20
2023-05-12T21:51:17.615Z,14.60
2023-05-12T21:56:23.217Z,13.20
2023-05-12T22:01:29.742Z,12.10
2023-05-12T22:06:35.546Z,11.90
2023-05-12T22:11:41.304Z,11.60
2023-05-12T22:16:47.878Z,12.60
2023-05-12T22:21:54.951Z,12.40
2023-05-12T22:27:01.147Z,12.30
2023-05-12T22:32:07.684Z,12.00
2023-05-12T22:37:13.368Z,13.30
2023-05-12T22:42:18.943Z,12.80
2023-05-12T22:47:24.521Z,12.80
2023-05-12T22:52:30.612Z,12.10
2023-05-12T22:57:38.618Z,12.20
2023-05-12T23:02:44.297Z,13.40
2023-05-12T23:07:50.401Z,13.10
2023-05-12T23:12:56.031Z,12.90
2023-05-12T23:18:21.654Z,14.10
2023-05-12T23:23:36.244Z,14.00
2023-05-12T23:28:41.687Z,14.80
2023-05-12T23:33:47.248Z,14.80
2023-05-12T23:38:54.617Z,14.00
2023-05-12T23:44:00.297Z,13.30
2023-05-12T23:49:06.512Z,13.60
2023-05-12T23:54:12.061Z,14.30
2023-05-12T23:59:17.601Z,15.20
